עמוד ראשי
METAR-TAF:

METAR-TAF

שדות תעופה :

San José del Cabo, מקסיקו

קו רוחב: 23-09N, קו אורך: 109-42W, גובה: 109מטר

תצפית מזג אוויר נוכחית

הדו"ח נערך לפני 5 שעות ו 22דקות, בשעה 04:40 UTC
רוח 2קשר מכיוון צפון/צפון-מערב
טמפרטורת 28 צלסיוס
לחות 42%
לחץ 1008 hPa
ראות: 19.3קילומטר
שמיים נקיים

METAR: MMSD 160440Z 33002KT 12SM SKC 28/14 A2977

זמן: 04:02 (10:02 UTC)

תחזית

הדו"ח נערך לפני 5 שעות ו 0דקות, בשעה 05:02 UTC
תחזית בתוקף מ 16 ב 06 UTC עד 17 ב 06 UTC
רוח 5קשר מכיוון צפון-מערב
ראות: 10קילומטר
שמיים נקיים
מ 16 ב 1800UTC
רוח 15קשר מכיוון דרום/דרום-מזרח
ראות: 10קילומטר
שמיים נקיים
יעשה מ
17 ב 01 UTC עד 17 ב 02 UTC
רוח 5קשר מכיוון דרום/דרום-מזרח

TAF: MMSD 160502Z 1606/1706 31005KT P6SM SKC FM161800 15015KT P6SM SKC BECMG 1701/1702 15005KT

תצפיות ותחזיות מזג אוויר לגבי יותר מ- 4,000 שדות תעופה ברחבי העולם. דוחות METAR ו- TAF.

התחנות הזמינות מסומנות בנקודות צהובות ואדומות על גבי המפה.

העבר את העכבר לנקודה הצבעונית על מנת לראות את שם התחנה.

לאחר מכן, לחץ כדי לראות את תוכן ואת תחזיות מזג האוויר.

כדי לשנות את המפה: לחץ על הכפתורים הירוקים עם הפלוס השחור כדי להתקרב; על הכפתור הירוק עם המקף כדי להתרחק; או בחיצים הירוקים למפות סמוכות.


METAR-TAF: